Seward, AK (99664)

7:11 PM AKDT on March 28, 2017 (GMT -0800)
Oak Street Forest Acres Seward Alaska | | Change Station

Elev 144 ft 60.14 °N, 149.44 °W | Updated 16 seconds ago

Overcast
Overcast
36.0 °F
Feels Like 36 °F
N
0.0
Wind Variable Wind from SW

Today
High -- | Low -- °F
--% Chance of Precip.
Yesterday
High -- | Low -- °F
Precip. -- in
Pressure 29.47 in
Visibility 10.0 miles
Clouds Mostly Cloudy 4700 ft
Overcast 6000 ft
Windchill 36 °F
Dew Point 32 °F
Humidity 84%
Rainfall 0.15 in
Snow Depth Not available.
7:33 AM 8:33 PM
New Moon, 1% visible
METAR PAWD 290253Z AUTO 00000KT 10SM BKN047 OVC060 02/M01 A2946 RMK AO2 SLP977 60001 T00171006 51004 TSNO $
Pressure 29.47 in
Visibility 10.0 miles
Clouds Mostly Cloudy 4700 ft
Overcast 6000 ft
Windchill 36 °F
Dew Point 32 °F
Humidity 84%
Rainfall 0.15 in
Snow Depth Not available.
7:33 AM 8:33 PM
New Moon, 1% visible
METAR PAWD 290253Z AUTO 00000KT 10SM BKN047 OVC060 02/M01 A2946 RMK AO2 SLP977 60001 T00171006 51004 TSNO $

Get Severe Weather Alerts

Thanks for signing up!

Be on the lookout for a verification email in your inbox.

You'll start receiving the daily forecast at 8 AM.

×

10-Day Weather Forecast

Almanac

Astronomy

Mar. 28, 2017 Rise Set
Actual Time
Civil Twilight
Nautical Twilight
Astronomical Twilight
Moon
Length of Visible Light
Length of Day
Tomorrow will be .
, % of the Moon is Illuminated

Today's Extremes

State Highs State Lows

Community

WunderPhotos

Upload Photos

1,962,540 photos uploaded!

WunderBlog® & News

Nearby

Air Quality

  Air Quality AQ Index Pollutant
Not available.

Snow Depth

Station Depth Elevation

Earthquake Activity

City Distance Mag. Time & Date
Minimum magnitude displayed is 2.5.

Earthquake Activity

City Distance Mag. Time & Date
Minimum magnitude displayed is 2.5.

Coastal Water Temperatures

Place Temperature

Stations

Nearby Weather Stations

Station Location Temp. Windchill Dew Point Humidity Wind Precip. Elev Updated Type
                   

Watches & Warnings

There are currently no watches in effect.